Terminal Aerodrome Forecast
Issued by NWS

Home | Current Version | Previous Version | Text Only | Print | Product List | Glossary On
Versions: 1 2 3 4 5 6 7 8 9 10 11 12 13 14 15 16 17 18 19 20 21
000
FTUS43 KDLH 231138
TAFHIB
TAF
KHIB 231138Z 2312/2412 03009KT P6SM OVC016
      TEMPO 2312/2316 4SM -SN OVC009
     FM231600 07008KT 4SM -SN SCT015 BKN030
     FM232000 09008KT P6SM VCSH BKN025
     FM240000 09007KT P6SM VCSH BKN025=

USA.gov is the U.S. government's official web portal to all federal, state and local government web resources and services.